Time;durP1;ratioP1;P1;durP2;ratioP2;P2;SDS_P1;SDS_P2;PMS_P1;PMS_P2;Temp;Humidity;BMP_temperature;BMP_pressure;BME280_temperature;BME280_humidity;BME280_pressure;Samples;Min_cycle;Max_cycle;Signal;HPM_P1;HPM_P2
2022/11/27 00:01:31;;;;;;;23.05;15.98;;;;;;;2.82;100.00;101194.31;5028187;28;20038;-70
2022/11/27 00:03:56;;;;;;;24.88;16.73;;;;;;;2.79;100.00;101185.09;5011881;28;20034;-71
2022/11/27 00:06:25;;;;;;;25.58;17.10;;;;;;;3.13;100.00;101240.25;5012908;28;20386;-70
2022/11/27 00:08:50;;;;;;;23.83;15.95;;;;;;;2.81;100.00;101196.00;5012765;28;20026;-69
2022/11/27 00:11:22;;;;;;;24.35;16.27;;;;;;;3.07;100.00;101225.03;5012843;28;20389;-70
2022/11/27 00:13:49;;;;;;;24.85;16.65;;;;;;;3.02;100.00;101199.00;5011954;28;20034;-70
2022/11/27 00:16:14;;;;;;;28.80;18.42;;;;;;;2.59;100.00;101202.16;5012725;28;20037;-71
2022/11/27 00:18:41;;;;;;;27.70;17.35;;;;;;;3.34;100.00;101187.13;5010901;28;20500;-71
2022/11/27 00:21:13;;;;;;;25.98;16.88;;;;;;;2.98;100.00;101192.19;5027850;28;20076;-71
2022/11/27 00:23:39;;;;;;;24.98;17.65;;;;;;;2.86;100.00;101244.66;5012265;28;20132;-71
2022/11/27 00:26:06;;;;;;;22.42;15.88;;;;;;;3.13;100.00;101239.44;5011891;28;20034;-70
2022/11/27 00:28:32;;;;;;;22.20;15.38;;;;;;;2.74;100.00;101196.66;5010694;28;20440;-71
2022/11/27 00:31:04;;;;;;;21.73;15.15;;;;;;;3.48;100.00;101248.56;5011703;28;20038;-71
2022/11/27 00:33:29;;;;;;;25.08;16.65;;;;;;;3.32;100.00;101246.53;5012092;28;20034;-70
2022/11/27 00:35:55;;;;;;;24.75;15.32;;;;;;;3.29;100.00;101246.47;5010585;28;20563;-70
2022/11/27 00:38:21;;;;;;;25.08;15.38;;;;;;;3.12;100.00;101257.81;5011627;28;20112;-70
2022/11/27 00:40:46;;;;;;;20.25;14.77;;;;;;;3.02;100.00;101225.75;5010805;28;20036;-70
2022/11/27 00:43:12;;;;;;;21.40;14.45;;;;;;;3.21;100.00;101253.81;5011001;28;20037;-71
2022/11/27 00:45:37;;;;;;;43.08;25.52;;;;;;;2.82;100.00;101231.97;5012762;28;20381;-70
2022/11/27 00:48:03;;;;;;;38.17;22.85;;;;;;;2.90;100.00;101275.69;5012303;28;20420;-70
2022/11/27 00:50:30;;;;;;;28.98;17.42;;;;;;;2.62;100.00;101222.34;5010939;28;20061;-70
2022/11/27 00:52:57;;;;;;;26.58;17.15;;;;;;;2.57;100.00;101233.94;5010643;28;20102;-70
2022/11/27 00:55:23;;;;;;;21.17;14.10;;;;;;;2.07;100.00;101208.38;5010807;28;20061;-69
2022/11/27 00:57:48;;;;;;;28.15;15.02;;;;;;;2.61;100.00;101254.94;5012646;28;20045;-70
2022/11/27 01:00:15;;;;;;;22.85;14.52;;;;;;;2.86;100.00;101262.22;5012427;28;20108;-69
2022/11/27 01:02:40;;;;;;;24.70;14.65;;;;;;;2.57;100.00;101264.06;5011796;28;20044;-70
2022/11/27 01:05:06;;;;;;;25.02;15.30;;;;;;;2.40;100.00;101219.25;5010983;28;20026;-70
2022/11/27 01:07:31;;;;;;;24.38;15.50;;;;;;;2.42;100.00;101215.97;5010685;28;20049;-69
2022/11/27 01:09:57;;;;;;;22.98;15.00;;;;;;;2.26;100.00;101191.31;5011412;28;20484;-70
2022/11/27 01:12:22;;;;;;;22.88;15.75;;;;;;;2.41;100.00;101263.63;5011444;28;20030;-70
2022/11/27 01:14:48;;;;;;;24.20;16.40;;;;;;;2.33;100.00;101210.75;5011746;28;20038;-70
2022/11/27 01:17:13;;;;;;;23.88;15.50;;;;;;;2.75;100.00;101253.59;5012110;28;20586;-70
2022/11/27 01:19:38;;;;;;;22.08;15.02;;;;;;;2.58;100.00;101210.53;5011523;28;20034;-70
2022/11/27 01:22:04;;;;;;;24.17;15.52;;;;;;;2.77;100.00;101256.16;5011610;28;20026;-70
2022/11/27 01:24:29;;;;;;;24.08;15.55;;;;;;;2.86;100.00;101258.84;5010282;28;20061;-69
2022/11/27 01:26:55;;;;;;;23.33;14.63;;;;;;;2.78;100.00;101263.72;5010795;28;20511;-70
2022/11/27 01:29:20;;;;;;;21.52;14.27;;;;;;;2.77;100.00;101253.63;5011794;28;20165;-69
2022/11/27 01:31:45;;;;;;;24.02;15.27;;;;;;;2.39;100.00;101210.91;5011813;28;20141;-70
2022/11/27 01:34:16;;;;;;;21.90;14.25;;;;;;;2.90;100.00;101208.75;5011554;28;20025;-70
2022/11/27 01:36:43;;;;;;;20.13;14.57;;;;;;;3.02;100.00;101259.25;5011352;28;20026;-70
2022/11/27 01:39:14;;;;;;;22.35;15.85;;;;;;;2.83;100.00;101249.63;5011305;28;20052;-69
2022/11/27 01:41:40;;;;;;;24.10;16.17;;;;;;;2.83;100.00;101253.78;5010332;28;20025;-69
2022/11/27 01:44:24;;;;;;;23.05;15.95;;;;;;;2.93;100.00;101256.53;5009691;28;20061;-72
2022/11/27 01:46:57;;;;;;;26.95;17.20;;;;;;;2.84;100.00;101233.72;5011092;28;20032;-70
2022/11/27 01:49:37;;;;;;;29.60;17.42;;;;;;;2.62;100.00;101262.50;5009636;28;20034;-70
2022/11/27 01:52:33;;;;;;;24.73;16.67;;;;;;;2.57;100.00;101259.03;5011319;28;20184;-70
2022/11/27 01:55:05;;;;;;;25.55;16.20;;;;;;;2.44;100.00;101246.13;5009827;28;20127;-70
2022/11/27 01:57:37;;;;;;;25.13;16.35;;;;;;;2.18;100.00;101205.31;5010604;28;20029;-69
2022/11/27 02:00:06;;;;;;;26.42;16.20;;;;;;;2.26;100.00;101248.16;5009177;28;20524;-70
2022/11/27 02:02:32;;;;;;;25.73;15.30;;;;;;;2.47;100.00;101201.03;5011024;28;20476;-70
2022/11/27 02:04:57;;;;;;;22.38;15.48;;;;;;;2.41;100.00;101218.44;5009449;28;20183;-70
2022/11/27 02:07:23;;;;;;;25.25;16.33;;;;;;;2.80;100.00;101252.03;5010847;28;20113;-70
2022/11/27 02:09:49;;;;;;;29.15;19.13;;;;;;;2.17;100.00;101212.81;5009626;28;20184;-70
2022/11/27 02:12:24;;;;;;;26.50;17.15;;;;;;;2.30;100.00;101207.28;5009314;28;20065;-70
2022/11/27 02:15:12;;;;;;;24.15;16.20;;;;;;;2.19;100.00;101246.31;5010583;28;20026;-70
2022/11/27 02:17:53;;;;;;;25.90;17.60;;;;;;;2.36;100.00;101245.94;5010708;28;20030;-71
2022/11/27 02:20:18;;;;;;;28.88;17.42;;;;;;;2.62;100.00;101249.94;5010849;28;20049;-70
2022/11/27 02:22:56;;;;;;;42.97;23.73;;;;;;;2.30;100.00;101250.78;5010850;28;20030;-70
2022/11/27 02:25:27;;;;;;;31.98;19.92;;;;;;;2.35;100.00;101248.41;5012526;28;20041;-69
2022/11/27 02:28:02;;;;;;;32.42;18.00;;;;;;;1.82;100.00;101194.34;5014646;28;20030;-70
2022/11/27 02:30:35;;;;;;;26.60;15.98;;;;;;;2.04;100.00;101250.94;5012782;28;20053;-70
2022/11/27 02:33:05;;;;;;;24.73;16.42;;;;;;;1.67;100.00;101213.97;5014173;28;20068;-70
2022/11/27 02:35:35;;;;;;;29.63;17.38;;;;;;;1.51;100.00;101182.63;5014017;28;20061;-70
2022/11/27 02:38:16;;;;;;;22.60;14.63;;;;;;;1.97;100.00;101254.06;5007768;28;20038;-70
2022/11/27 02:40:59;;;;;;;22.05;13.27;;;;;;;1.73;100.00;101220.00;5011904;28;20026;-69
2022/11/27 02:43:35;;;;;;;21.00;13.30;;;;;;;1.81;100.00;101250.28;5014063;28;20034;-69
2022/11/27 02:46:04;;;;;;;22.27;14.05;;;;;;;1.44;100.00;101255.06;5014025;28;20042;-69
2022/11/27 02:48:37;;;;;;;21.35;13.05;;;;;;;1.31;100.00;101203.75;5013006;28;20390;-69
2022/11/27 02:51:04;;;;;;;21.58;13.63;;;;;;;2.20;100.00;101243.00;5013838;28;20026;-69
2022/11/27 02:53:36;;;;;;;21.67;13.40;;;;;;;1.75;100.00;101210.88;5013108;28;20467;-69
2022/11/27 02:56:09;;;;;;;23.80;13.93;;;;;;;1.85;100.00;101256.22;5013789;28;20492;-68
2022/11/27 02:58:36;;;;;;;20.55;13.50;;;;;;;1.86;100.00;101195.28;5013446;28;20033;-69
2022/11/27 03:01:05;;;;;;;21.10;13.85;;;;;;;1.86;100.00;101211.19;5012616;28;20026;-69
2022/11/27 03:03:37;;;;;;;19.75;13.23;;;;;;;1.72;100.00;101218.28;5012982;28;20071;-69
2022/11/27 03:06:09;;;;;;;20.13;13.68;;;;;;;2.03;100.00;101260.09;5003866;28;20054;-69
2022/11/27 03:08:44;;;;;;;20.08;14.25;;;;;;;2.23;100.00;101258.13;4996087;28;20493;-69
2022/11/27 03:11:12;;;;;;;22.30;14.23;;;;;;;2.19;100.00;101244.66;5013732;28;20041;-69
2022/11/27 03:13:57;;;;;;;20.77;13.75;;;;;;;2.10;100.00;101195.94;5013542;28;20110;-69
2022/11/27 03:16:47;;;;;;;22.90;14.05;;;;;;;2.10;100.00;101256.09;4992958;28;20040;-69
2022/11/27 03:19:53;;;;;;;23.15;14.52;;;;;;;2.10;100.00;101251.09;4993747;28;20030;-69
2022/11/27 03:22:19;;;;;;;20.27;13.73;;;;;;;2.22;100.00;101241.38;4972015;28;20090;-69
2022/11/27 03:24:44;;;;;;;22.33;13.73;;;;;;;2.23;100.00;101248.94;4989063;28;20484;-70
2022/11/27 03:27:18;;;;;;;25.88;14.15;;;;;;;2.10;100.00;101253.59;4993780;28;20579;-69
2022/11/27 03:29:51;;;;;;;23.50;14.98;;;;;;;1.82;100.00;101251.16;4993644;28;20109;-69
2022/11/27 03:32:17;;;;;;;24.45;15.18;;;;;;;1.95;100.00;101228.09;4993694;28;20572;-69
2022/11/27 03:34:43;;;;;;;24.77;16.27;;;;;;;1.65;100.00;101226.47;4993177;28;20026;-69
2022/11/27 03:37:09;;;;;;;23.15;15.40;;;;;;;2.06;100.00;101261.84;5005979;28;20034;-69
2022/11/27 03:39:35;;;;;;;29.02;17.83;;;;;;;2.01;100.00;101251.69;4994221;28;20054;-69
2022/11/27 03:42:13;;;;;;;30.10;19.42;;;;;;;1.84;100.00;101269.59;4993337;28;20036;-69
2022/11/27 03:44:45;;;;;;;32.47;18.80;;;;;;;1.52;100.00;101218.56;4992173;28;20041;-69
2022/11/27 03:47:29;;;;;;;32.38;19.48;;;;;;;2.04;100.00;101264.28;4992028;28;20026;-69
2022/11/27 03:50:15;;;;;;;36.53;21.25;;;;;;;1.85;100.00;101267.13;4993252;28;20196;-69
2022/11/27 03:52:56;;;;;;;35.65;20.35;;;;;;;2.22;100.00;101274.00;4993120;28;20450;-69
2022/11/27 03:56:02;;;;;;;39.38;22.40;;;;;;;1.54;100.00;101219.47;4998720;28;20084;-68
2022/11/27 03:58:34;;;;;;;37.45;24.10;;;;;;;1.60;100.00;101212.97;4989701;28;20034;-69
2022/11/27 04:01:02;;;;;;;36.85;23.42;;;;;;;1.78;100.00;101207.63;5001991;28;20053;-68
2022/11/27 04:03:28;;;;;;;35.72;21.33;;;;;;;1.91;100.00;101214.66;4998424;28;20141;-70
2022/11/27 04:05:55;;;;;;;36.08;21.27;;;;;;;2.01;100.00;101265.88;4999800;28;20493;-70
2022/11/27 04:08:21;;;;;;;35.13;20.50;;;;;;;1.84;100.00;101207.78;4992649;28;20026;-69
2022/11/27 04:10:46;;;;;;;33.65;21.55;;;;;;;1.96;100.00;101262.41;4993114;28;20449;-68
2022/11/27 04:13:12;;;;;;;36.30;21.85;;;;;;;1.69;100.00;101182.28;4992952;28;20034;-69
2022/11/27 04:15:38;;;;;;;36.38;20.95;;;;;;;1.67;100.00;101224.00;4993025;28;20058;-68
2022/11/27 04:18:03;;;;;;;39.38;21.73;;;;;;;1.98;100.00;101215.66;4991390;28;20504;-69
2022/11/27 04:20:29;;;;;;;35.20;21.05;;;;;;;1.39;100.00;101176.44;4992762;28;20042;-68
2022/11/27 04:22:55;;;;;;;34.97;20.70;;;;;;;2.19;100.00;101261.34;4992800;28;20023;-69
2022/11/27 04:25:21;;;;;;;38.75;21.02;;;;;;;2.00;100.00;101269.19;4999025;28;20036;-69
2022/11/27 04:27:46;;;;;;;32.65;19.88;;;;;;;2.38;100.00;101256.84;5011985;28;20420;-69
2022/11/27 04:30:12;;;;;;;38.92;21.25;;;;;;;1.98;100.00;101263.28;5011787;28;20116;-68
2022/11/27 04:32:38;;;;;;;40.00;22.85;;;;;;;1.85;100.00;101259.59;5012133;28;20412;-71
2022/11/27 04:35:04;;;;;;;32.53;20.08;;;;;;;1.51;100.00;101222.72;5005010;28;20030;-69
2022/11/27 04:37:29;;;;;;;35.47;19.95;;;;;;;2.20;100.00;101258.06;5004501;28;20030;-69
2022/11/27 04:39:55;;;;;;;38.67;20.60;;;;;;;2.09;100.00;101262.78;5007026;28;20055;-69
2022/11/27 04:42:22;;;;;;;39.33;23.33;;;;;;;1.89;100.00;101266.41;4992098;28;20042;-68
2022/11/27 04:44:47;;;;;;;38.50;21.92;;;;;;;1.68;100.00;101268.31;4990506;28;20034;-69
2022/11/27 04:47:12;;;;;;;33.83;21.10;;;;;;;2.25;100.00;101251.47;4991321;28;20034;-68
2022/11/27 04:49:38;;;;;;;30.35;20.70;;;;;;;1.94;100.00;101243.97;4991636;28;20031;-69
2022/11/27 04:52:03;;;;;;;44.47;26.65;;;;;;;1.87;100.00;101200.31;5002466;28;20073;-69
2022/11/27 04:54:29;;;;;;;69.35;46.08;;;;;;;1.71;100.00;101219.13;5011592;28;20933;-69
2022/11/27 04:56:54;;;;;;;75.55;49.05;;;;;;;1.87;100.00;101217.03;5011773;28;20033;-68
2022/11/27 04:59:20;;;;;;;60.92;40.90;;;;;;;2.35;100.00;101253.41;5011660;28;20102;-69
2022/11/27 05:01:46;;;;;;;53.10;35.85;;;;;;;2.32;100.00;101253.31;5011544;28;20040;-69
2022/11/27 05:04:11;;;;;;;45.58;29.65;;;;;;;1.99;100.00;101214.84;5012117;28;20104;-68
2022/11/27 05:06:36;;;;;;;50.40;31.02;;;;;;;1.51;100.00;101210.19;5011721;28;20469;-71
2022/11/27 05:09:02;;;;;;;45.08;31.10;;;;;;;1.98;100.00;101208.16;5012236;28;20084;-69
2022/11/27 05:11:29;;;;;;;54.17;36.13;;;;;;;2.01;100.00;101258.34;5006941;28;20054;-68
2022/11/27 05:14:13;;;;;;;51.30;37.53;;;;;;;1.66;100.00;101207.28;4989937;28;20027;-68
2022/11/27 05:16:44;;;;;;;57.15;38.42;;;;;;;1.84;100.00;101252.03;4992077;28;20049;-69
2022/11/27 05:19:09;;;;;;;56.22;38.08;;;;;;;1.87;100.00;101263.00;5007162;28;20141;-68
2022/11/27 05:21:36;;;;;;;48.83;32.75;;;;;;;1.93;100.00;101263.16;4991826;28;20536;-68
2022/11/27 05:24:02;;;;;;;48.08;30.92;;;;;;;1.58;100.00;101211.22;4991589;28;20060;-69
2022/11/27 05:26:28;;;;;;;45.08;30.63;;;;;;;1.81;100.00;101259.47;4989892;28;20061;-68
2022/11/27 05:28:53;;;;;;;49.20;31.60;;;;;;;2.00;100.00;101234.09;4990062;28;20030;-69
2022/11/27 05:31:18;;;;;;;48.05;29.75;;;;;;;2.03;100.00;101207.44;4991388;28;20030;-68
2022/11/27 05:33:44;;;;;;;45.25;29.48;;;;;;;2.34;100.00;101214.06;4991331;28;20030;-68
2022/11/27 05:36:09;;;;;;;42.35;28.00;;;;;;;2.56;100.00;101244.75;4993578;28;20034;-69
2022/11/27 05:38:35;;;;;;;41.97;27.70;;;;;;;2.50;100.00;101246.25;5004780;28;20037;-69
2022/11/27 05:41:02;;;;;;;42.58;27.67;;;;;;;2.60;100.00;101255.72;5009399;28;20384;-69
2022/11/27 05:43:27;;;;;;;36.92;23.88;;;;;;;1.94;100.00;101198.84;5005359;28;20034;-69
2022/11/27 05:45:52;;;;;;;40.60;26.50;;;;;;;2.23;100.00;101196.28;4991218;28;20065;-69
2022/11/27 05:48:18;;;;;;;40.40;27.02;;;;;;;3.28;100.00;101273.28;4990189;28;20033;-69
2022/11/27 05:50:43;;;;;;;47.50;28.55;;;;;;;2.52;100.00;101220.41;4991588;28;20141;-69
2022/11/27 05:53:09;;;;;;;40.25;27.13;;;;;;;2.45;100.00;101235.28;4990540;28;20073;-68
2022/11/27 05:55:34;;;;;;;54.78;34.30;;;;;;;2.58;100.00;101232.25;4991258;28;20030;-68
2022/11/27 05:57:59;;;;;;;51.72;31.13;;;;;;;2.53;100.00;101284.84;4992225;28;20037;-68
2022/11/27 06:00:25;;;;;;;45.65;30.77;;;;;;;2.59;100.00;101274.94;5011143;28;20025;-69
2022/11/27 06:02:51;;;;;;;38.95;24.40;;;;;;;2.58;100.00;101278.28;5010837;28;20070;-69
2022/11/27 06:05:17;;;;;;;35.95;23.15;;;;;;;2.86;100.00;101286.47;5007377;28;20504;-71
2022/11/27 06:07:42;;;;;;;33.67;21.88;;;;;;;2.65;100.00;101271.75;5010106;28;20030;-69
2022/11/27 06:10:08;;;;;;;36.35;23.73;;;;;;;2.75;100.00;101283.72;5009126;28;20489;-69
2022/11/27 06:12:33;;;;;;;47.08;28.00;;;;;;;2.91;100.00;101269.88;5008884;28;20408;-69
2022/11/27 06:14:59;;;;;;;47.08;30.17;;;;;;;2.81;100.00;101275.50;5010596;28;20037;-68
2022/11/27 06:17:24;;;;;;;60.90;40.72;;;;;;;2.87;100.00;101281.53;5010217;28;20411;-72
2022/11/27 06:19:50;;;;;;;52.33;34.38;;;;;;;2.67;100.00;101253.41;5010602;28;20030;-69
2022/11/27 06:22:16;;;;;;;59.15;36.85;;;;;;;2.44;100.00;101248.63;5008733;28;20473;-68
2022/11/27 06:24:41;;;;;;;51.58;34.60;;;;;;;2.51;100.00;101220.38;5010316;28;20455;-70
2022/11/27 06:27:07;;;;;;;62.47;41.60;;;;;;;2.48;100.00;101240.34;5009832;28;20485;-70
2022/11/27 06:29:32;;;;;;;81.65;53.97;;;;;;;2.54;100.00;101258.09;5008825;28;20061;-70
2022/11/27 06:31:58;;;;;;;92.18;63.10;;;;;;;2.63;100.00;101285.94;5009146;28;20056;-70
2022/11/27 06:34:23;;;;;;;76.13;53.78;;;;;;;2.89;100.00;101291.59;5009357;28;20034;-71
2022/11/27 06:36:49;;;;;;;72.50;48.83;;;;;;;2.87;100.00;101294.06;5009937;28;20092;-70
2022/11/27 06:39:15;;;;;;;67.25;46.97;;;;;;;2.97;100.00;101298.47;5008335;28;20141;-70
2022/11/27 06:41:42;;;;;;;59.55;43.20;;;;;;;2.81;100.00;101293.06;5009945;28;20532;-71
2022/11/27 06:44:08;;;;;;;58.10;40.72;;;;;;;3.09;100.00;101301.28;5008750;28;20026;-70
2022/11/27 06:46:33;;;;;;;49.67;35.97;;;;;;;3.07;100.00;101251.84;5009813;28;20033;-69
2022/11/27 06:48:59;;;;;;;47.55;32.80;;;;;;;3.20;100.00;101319.97;5007625;28;20030;-70
2022/11/27 06:51:28;;;;;;;63.45;42.20;;;;;;;3.34;100.00;101318.63;5009921;28;20034;-68
2022/11/27 06:53:54;;;;;;;56.22;38.60;;;;;;;2.89;100.00;101253.94;5009931;28;20038;-69
2022/11/27 06:56:25;;;;;;;74.85;50.67;;;;;;;3.66;100.00;101308.44;5009017;28;20037;-70
2022/11/27 06:58:55;;;;;;;68.28;45.40;;;;;;;3.61;100.00;101304.94;5008080;28;20481;-70
2022/11/27 07:01:22;;;;;;;57.55;39.80;;;;;;;3.57;100.00;101313.25;5009713;28;20037;-69
2022/11/27 07:03:48;;;;;;;54.22;39.33;;;;;;;3.80;100.00;101317.13;5009028;28;20092;-69
2022/11/27 07:06:16;;;;;;;47.97;36.58;;;;;;;3.69;100.00;101316.88;5009565;28;20689;-69
2022/11/27 07:08:42;;;;;;;46.63;35.38;;;;;;;4.20;100.00;101286.88;5009846;28;20037;-70
2022/11/27 07:11:11;;;;;;;47.00;34.38;;;;;;;4.18;100.00;101296.91;5011787;28;20038;-69
2022/11/27 07:13:37;;;;;;;71.28;48.92;;;;;;;3.76;100.00;101263.41;5013209;28;20041;-69
2022/11/27 07:16:05;;;;;;;62.13;45.35;;;;;;;4.12;100.00;101250.69;5004504;28;20038;-71
2022/11/27 07:18:35;;;;;;;65.22;44.05;;;;;;;4.18;100.00;101301.13;4993606;28;20045;-69
2022/11/27 07:21:00;;;;;;;76.03;52.85;;;;;;;4.32;100.00;101299.69;4993727;28;20493;-69
2022/11/27 07:23:26;;;;;;;103.97;73.35;;;;;;;4.28;100.00;101275.28;4994309;28;20070;-71
2022/11/27 07:25:51;;;;;;;271.30;180.43;;;;;;;4.25;100.00;101273.59;4993605;28;20026;-69
2022/11/27 07:28:17;;;;;;;197.45;137.48;;;;;;;4.53;100.00;101269.88;5011433;28;20040;-70
2022/11/27 07:30:42;;;;;;;191.05;138.38;;;;;;;4.47;100.00;101236.19;5012969;28;20563;-70
2022/11/27 07:33:07;;;;;;;226.20;152.45;;;;;;;4.74;100.00;101269.38;5011617;28;20053;-70
2022/11/27 07:35:33;;;;;;;222.93;146.75;;;;;;;4.99;100.00;101272.31;5012627;28;20497;-70
2022/11/27 07:37:58;;;;;;;231.90;145.05;;;;;;;5.06;100.00;101271.59;5011395;28;20029;-72
2022/11/27 07:40:24;;;;;;;203.43;128.18;;;;;;;4.99;100.00;101216.88;5011472;28;20116;-69
2022/11/27 07:42:49;;;;;;;170.05;109.40;;;;;;;5.29;100.00;101209.75;5010747;28;20489;-69
2022/11/27 07:45:15;;;;;;;146.27;95.53;;;;;;;5.55;100.00;101254.63;5012140;28;20068;-68
2022/11/27 07:47:41;;;;;;;121.35;83.75;;;;;;;5.58;100.00;101272.31;5012300;28;20077;-70
2022/11/27 07:50:07;;;;;;;104.38;75.72;;;;;;;5.73;100.00;101252.31;5012341;28;20030;-70
2022/11/27 07:52:34;;;;;;;90.28;63.50;;;;;;;5.57;100.00;101258.00;5012894;28;20037;-70
2022/11/27 07:54:59;;;;;;;91.40;68.88;;;;;;;5.58;100.00;101219.34;5012489;28;20034;-70
2022/11/27 07:57:26;;;;;;;74.97;55.92;;;;;;;5.77;100.00;101254.91;5012381;28;20030;-70
2022/11/27 07:59:52;;;;;;;54.72;40.35;;;;;;;5.95;100.00;101224.88;5012586;28;20053;-70
2022/11/27 08:02:17;;;;;;;40.90;28.20;;;;;;;5.88;100.00;101207.97;5011109;28;20481;-72
2022/11/27 08:04:42;;;;;;;29.35;20.75;;;;;;;5.95;100.00;101224.03;5012434;28;20036;-70
2022/11/27 08:07:08;;;;;;;28.10;18.67;;;;;;;6.31;100.00;101223.53;5010458;28;20041;-69
2022/11/27 08:09:33;;;;;;;18.65;12.77;;;;;;;6.09;100.00;101260.34;5011438;28;20100;-69
2022/11/27 08:11:59;;;;;;;23.67;14.25;;;;;;;6.60;100.00;101250.75;5009681;28;20030;-70
2022/11/27 08:14:24;;;;;;;22.63;12.63;;;;;;;6.34;100.00;101223.59;5010993;28;20034;-69
2022/11/27 08:16:49;;;;;;;19.70;13.80;;;;;;;6.28;100.00;101211.72;5011618;28;20038;-69
2022/11/27 08:19:15;;;;;;;17.70;11.95;;;;;;;6.58;100.00;101281.88;5011604;28;20396;-69
2022/11/27 08:21:40;;;;;;;18.35;12.15;;;;;;;6.83;100.00;101223.97;5010490;28;20056;-70
2022/11/27 08:24:06;;;;;;;19.10;11.60;;;;;;;6.96;100.00;101262.84;5010282;28;20037;-70
2022/11/27 08:26:31;;;;;;;17.85;10.82;;;;;;;7.19;100.00;101281.53;5011073;28;20519;-70
2022/11/27 08:28:57;;;;;;;26.30;14.98;;;;;;;6.97;100.00;101277.19;5012349;28;20048;-70
2022/11/27 08:31:23;;;;;;;30.45;18.77;;;;;;;7.28;100.00;101279.09;5011872;28;20030;-69
2022/11/27 08:33:49;;;;;;;22.58;14.80;;;;;;;7.44;100.00;101291.00;5009422;28;20037;-70
2022/11/27 08:36:14;;;;;;;18.75;12.45;;;;;;;7.55;100.00;101298.63;5011335;28;20565;-69
2022/11/27 08:38:40;;;;;;;18.30;10.32;;;;;;;7.29;100.00;101236.94;5011243;28;20133;-69
2022/11/27 08:41:07;;;;;;;19.83;13.05;;;;;;;7.68;100.00;101297.88;5010523;28;20468;-69
2022/11/27 08:43:33;;;;;;;20.38;13.02;;;;;;;7.42;100.00;101247.13;5011486;28;20025;-69
2022/11/27 08:45:59;;;;;;;16.63;11.48;;;;;;;7.52;100.00;101293.56;5011253;28;20034;-69
2022/11/27 08:48:25;;;;;;;17.85;12.55;;;;;;;7.74;100.00;101239.69;5009810;28;20345;-69
2022/11/27 08:50:51;;;;;;;19.02;12.95;;;;;;;7.79;100.00;101299.59;5010547;28;20517;-69
2022/11/27 08:53:17;;;;;;;23.23;13.70;;;;;;;7.49;100.00;101289.31;5010718;28;20042;-69
2022/11/27 08:55:44;;;;;;;23.40;16.60;;;;;;;7.73;100.00;101268.34;5010958;28;20117;-69
2022/11/27 08:58:10;;;;;;;23.65;16.52;;;;;;;7.66;100.00;101232.06;5011905;28;20030;-70
2022/11/27 09:00:36;;;;;;;27.50;16.27;;;;;;;7.94;100.00;101206.84;5010677;28;20475;-70
2022/11/27 09:03:02;;;;;;;23.83;14.32;;;;;;;7.54;100.00;101221.03;5010810;28;20026;-70
2022/11/27 09:05:29;;;;;;;16.88;12.73;;;;;;;7.67;100.00;101259.06;5010287;28;20424;-69
2022/11/27 09:07:55;;;;;;;22.65;15.98;;;;;;;7.55;100.00;101215.97;5011547;28;20026;-69
2022/11/27 09:10:21;;;;;;;19.10;13.82;;;;;;;7.77;100.00;101212.69;5010950;28;20034;-70
2022/11/27 09:12:50;;;;;;;17.33;11.25;;;;;;;7.93;100.00;101223.69;5009811;28;20060;-70
2022/11/27 09:15:16;;;;;;;16.88;12.90;;;;;;;7.89;100.00;101205.13;5011047;28;20117;-69
2022/11/27 09:17:42;;;;;;;21.17;13.85;;;;;;;7.86;100.00;101197.50;5009228;28;20076;-69
2022/11/27 09:20:08;;;;;;;17.80;12.13;;;;;;;8.28;100.00;101237.31;5010839;28;20026;-69
2022/11/27 09:22:33;;;;;;;18.23;13.00;;;;;;;8.53;100.00;101246.66;5009511;28;20026;-69
2022/11/27 09:24:59;;;;;;;18.75;11.35;;;;;;;8.44;100.00;101240.72;5010320;28;20140;-69
2022/11/27 09:27:24;;;;;;;16.38;10.80;;;;;;;8.17;100.00;101233.91;5009091;28;20113;-70
2022/11/27 09:29:50;;;;;;;19.00;13.25;;;;;;;8.54;100.00;101228.06;5010973;28;20473;-69
2022/11/27 09:32:15;;;;;;;20.83;12.75;;;;;;;8.40;100.00;101201.84;5008476;28;20040;-69
2022/11/27 09:34:41;;;;;;;16.50;10.60;;;;;;;8.29;100.00;101197.63;5007833;28;20507;-69
2022/11/27 09:37:07;;;;;;;12.50;9.18;;;;;;;8.44;100.00;101243.25;5010366;28;20092;-69
2022/11/27 09:39:33;;;;;;;17.80;12.65;;;;;;;8.57;100.00;101248.34;5008920;28;20045;-70
2022/11/27 09:42:01;;;;;;;12.65;9.95;;;;;;;8.70;100.00;101252.56;5009031;28;20048;-69
2022/11/27 09:44:45;;;;;;;11.30;9.15;;;;;;;8.60;100.00;101200.19;5010470;28;20517;-70
2022/11/27 09:47:17;;;;;;;12.85;8.95;;;;;;;8.87;100.00;101251.72;5010202;28;20030;-70
2022/11/27 09:49:48;;;;;;;16.83;10.23;;;;;;;8.69;100.00;101253.41;5010363;28;20164;-69
2022/11/27 09:52:32;;;;;;;12.73;10.50;;;;;;;8.71;100.00;101200.19;5010633;28;20030;-70
2022/11/27 09:55:10;;;;;;;11.75;8.90;;;;;;;8.99;100.00;101241.56;5009990;28;20065;-68
2022/11/27 09:57:38;;;;;;;13.45;9.77;;;;;;;8.69;100.00;101207.75;5010382;28;20120;-70
2022/11/27 10:00:13;;;;;;;15.63;11.75;;;;;;;9.00;100.00;101212.81;5009926;28;20409;-70
2022/11/27 10:02:41;;;;;;;18.80;8.98;;;;;;;9.22;100.00;101222.06;5009989;28;20056;-70
2022/11/27 10:05:17;;;;;;;11.88;7.82;;;;;;;9.21;100.00;101217.84;5010529;28;20068;-69
2022/11/27 10:08:33;;;;;;;13.73;9.40;;;;;;;9.43;100.00;101229.63;5006733;28;20060;-68
2022/11/27 10:11:43;;;;;;;10.50;8.00;;;;;;;9.46;100.00;101230.47;4976774;28;20042;-70
2022/11/27 10:14:17;;;;;;;9.23;7.22;;;;;;;9.19;100.00;101240.69;4999753;28;20044;-69
2022/11/27 10:16:53;;;;;;;12.43;8.45;;;;;;;9.32;100.00;101201.75;5010138;28;20025;-69
2022/11/27 10:19:40;;;;;;;13.13;9.25;;;;;;;9.66;100.00;101219.38;5009001;28;20065;-70
2022/11/27 10:22:21;;;;;;;9.80;7.47;;;;;;;9.70;100.00;101213.44;5008760;28;20172;-70
2022/11/27 10:24:58;;;;;;;15.45;8.63;;;;;;;9.79;100.00;101210.84;5007944;28;20042;-69
2022/11/27 10:27:45;;;;;;;21.73;8.43;;;;;;;9.95;100.00;101208.22;5010266;28;20030;-69
2022/11/27 10:30:16;;;;;;;10.00;6.65;;;;;;;9.98;100.00;101203.13;5010061;28;20037;-68
2022/11/27 10:32:45;;;;;;;12.52;8.40;;;;;;;9.70;100.00;101163.50;5010260;28;20038;-69
2022/11/27 10:35:15;;;;;;;37.40;19.83;;;;;;;9.68;100.00;101213.47;5007274;28;20038;-69
2022/11/27 10:37:46;;;;;;;9.68;6.97;;;;;;;9.97;100.00;101210.75;4990484;28;20034;-69
2022/11/27 10:40:12;;;;;;;16.67;10.63;;;;;;;9.95;100.00;101212.47;5001922;28;20096;-70
2022/11/27 10:42:47;;;;;;;27.50;16.88;;;;;;;9.79;100.00;101201.53;5009806;28;20485;-69
2022/11/27 10:45:31;;;;;;;12.77;8.77;;;;;;;9.89;100.00;101198.09;5001862;28;20036;-69
2022/11/27 10:47:56;;;;;;;8.40;5.78;;;;;;;9.97;100.00;101200.59;5014009;28;20037;-69
2022/11/27 10:50:21;;;;;;;12.20;7.38;;;;;;;9.73;100.00;101153.31;5012783;28;20026;-70
2022/11/27 10:52:59;;;;;;;8.02;6.25;;;;;;;9.96;100.00;101189.63;4997970;28;20079;-70
2022/11/27 10:55:58;;;;;;;12.20;8.88;;;;;;;10.11;100.00;101187.00;4992154;28;20038;-70
2022/11/27 10:58:41;;;;;;;16.33;11.10;;;;;;;9.80;100.00;101123.66;4969654;28;20089;-70
2022/11/27 11:01:10;;;;;;;14.10;9.45;;;;;;;9.98;100.00;101132.00;4994517;28;20037;-69
2022/11/27 11:03:35;;;;;;;9.63;6.63;;;;;;;10.19;100.00;101172.53;4994422;28;20034;-71
2022/11/27 11:06:05;;;;;;;6.38;5.15;;;;;;;10.39;100.00;101168.16;4993972;28;20486;-68
2022/11/27 11:08:33;;;;;;;7.60;5.15;;;;;;;10.12;100.00;101126.88;4993967;28;20489;-68
2022/11/27 11:11:04;;;;;;;6.20;5.10;;;;;;;10.14;100.00;101125.97;4993590;28;20049;-68
2022/11/27 11:13:39;;;;;;;8.07;5.95;;;;;;;10.75;100.00;101172.06;4993226;28;20030;-67
2022/11/27 11:16:17;;;;;;;8.85;5.90;;;;;;;10.31;100.00;101163.97;4992408;28;20093;-69
2022/11/27 11:18:45;;;;;;;7.53;5.63;;;;;;;10.51;100.00;101140.94;4993603;28;20169;-66